sensor_id;sensor_type;location;lat;lon;timestamp;temperature;humidity
74494;SHT31;62978;51.094;-115.362;2022-09-09T00:02:13;26.37;22.10
74494;SHT31;62978;51.094;-115.362;2022-09-09T00:04:59;26.47;22.15
74494;SHT31;62978;51.094;-115.362;2022-09-09T00:10:27;23.97;24.31
74494;SHT31;62978;51.094;-115.362;2022-09-09T00:13:19;24.67;23.96
74494;SHT31;62978;51.094;-115.362;2022-09-09T00:16:17;24.40;24.18
74494;SHT31;62978;51.094;-115.362;2022-09-09T00:21:49;22.09;26.63
74494;SHT31;62978;51.094;-115.362;2022-09-09T00:24:29;22.58;26.40
74494;SHT31;62978;51.094;-115.362;2022-09-09T00:27:16;21.80;27.37
74494;SHT31;62978;51.094;-115.362;2022-09-09T00:30:15;20.77;28.52
74494;SHT31;62978;51.094;-115.362;2022-09-09T00:32:48;20.13;29.68
74494;SHT31;62978;51.094;-115.362;2022-09-09T00:35:31;19.30;30.92
74494;SHT31;62978;51.094;-115.362;2022-09-09T00:38:14;18.79;31.18
74494;SHT31;62978;51.094;-115.362;2022-09-09T00:44:19;17.89;32.98
74494;SHT31;62978;51.094;-115.362;2022-09-09T00:47:04;17.67;33.36
74494;SHT31;62978;51.094;-115.362;2022-09-09T00:50:31;17.35;34.05
74494;SHT31;62978;51.094;-115.362;2022-09-09T00:56:25;16.68;35.43
74494;SHT31;62978;51.094;-115.362;2022-09-09T01:02:28;16.20;36.43
74494;SHT31;62978;51.094;-115.362;2022-09-09T01:05:54;15.90;37.03
74494;SHT31;62978;51.094;-115.362;2022-09-09T01:17:13;15.27;38.84
74494;SHT31;62978;51.094;-115.362;2022-09-09T01:29:04;14.66;40.44
74494;SHT31;62978;51.094;-115.362;2022-09-09T01:32:01;14.56;40.55
74494;SHT31;62978;51.094;-115.362;2022-09-09T01:34:48;14.44;40.98
74494;SHT31;62978;51.094;-115.362;2022-09-09T01:37:17;14.32;41.04
74494;SHT31;62978;51.094;-115.362;2022-09-09T01:39:45;14.22;41.19
74494;SHT31;62978;51.094;-115.362;2022-09-09T01:42:13;14.12;41.46
74494;SHT31;62978;51.094;-115.362;2022-09-09T01:44:43;14.01;41.81
74494;SHT31;62978;51.094;-115.362;2022-09-09T01:47:10;13.88;42.00
74494;SHT31;62978;51.094;-115.362;2022-09-09T01:55:48;13.44;42.87
74494;SHT31;62978;51.094;-115.362;2022-09-09T01:59:12;13.25;43.56
74494;SHT31;62978;51.094;-115.362;2022-09-09T02:04:44;12.87;44.75
74494;SHT31;62978;51.094;-115.362;2022-09-09T02:07:30;12.71;45.03
74494;SHT31;62978;51.094;-115.362;2022-09-09T02:10:24;12.56;45.99
74494;SHT31;62978;51.094;-115.362;2022-09-09T02:13:11;12.40;46.72
74494;SHT31;62978;51.094;-115.362;2022-09-09T02:15:53;12.28;46.90
74494;SHT31;62978;51.094;-115.362;2022-09-09T02:18:32;12.16;47.02
74494;SHT31;62978;51.094;-115.362;2022-09-09T02:21:21;12.05;47.11
74494;SHT31;62978;51.094;-115.362;2022-09-09T02:23:51;11.97;47.13
74494;SHT31;62978;51.094;-115.362;2022-09-09T02:26:21;11.89;47.68
74494;SHT31;62978;51.094;-115.362;2022-09-09T02:28:52;11.81;48.17
74494;SHT31;62978;51.094;-115.362;2022-09-09T02:31:24;11.73;48.36
74494;SHT31;62978;51.094;-115.362;2022-09-09T02:33:54;11.62;48.46
74494;SHT31;62978;51.094;-115.362;2022-09-09T02:36:27;11.53;48.99
74494;SHT31;62978;51.094;-115.362;2022-09-09T02:38:58;11.46;49.87
74494;SHT31;62978;51.094;-115.362;2022-09-09T02:41:28;11.40;49.96
74494;SHT31;62978;51.094;-115.362;2022-09-09T02:44:15;11.32;49.79
74494;SHT31;62978;51.094;-115.362;2022-09-09T02:58:16;10.91;51.60
74494;SHT31;62978;51.094;-115.362;2022-09-09T03:00:48;10.85;51.66
74494;SHT31;62978;51.094;-115.362;2022-09-09T03:03:18;10.77;52.02
74494;SHT31;62978;51.094;-115.362;2022-09-09T03:05:47;10.70;52.04
74494;SHT31;62978;51.094;-115.362;2022-09-09T03:08:15;10.64;52.27
74494;SHT31;62978;51.094;-115.362;2022-09-09T03:10:42;10.59;52.69
74494;SHT31;62978;51.094;-115.362;2022-09-09T03:13:10;10.54;52.65
74494;SHT31;62978;51.094;-115.362;2022-09-09T03:15:40;10.48;52.91
74494;SHT31;62978;51.094;-115.362;2022-09-09T03:18:08;10.43;53.33
74494;SHT31;62978;51.094;-115.362;2022-09-09T03:20:36;10.35;53.12
74494;SHT31;62978;51.094;-115.362;2022-09-09T03:23:03;10.27;53.45
74494;SHT31;62978;51.094;-115.362;2022-09-09T03:25:30;10.20;53.66
74494;SHT31;62978;51.094;-115.362;2022-09-09T03:27:59;10.11;53.94
74494;SHT31;62978;51.094;-115.362;2022-09-09T03:30:27;10.05;53.98
74494;SHT31;62978;51.094;-115.362;2022-09-09T03:32:55;9.98;54.33
74494;SHT31;62978;51.094;-115.362;2022-09-09T03:35:22;9.94;54.48
74494;SHT31;62978;51.094;-115.362;2022-09-09T03:37:50;9.90;54.53
74494;SHT31;62978;51.094;-115.362;2022-09-09T03:40:17;9.86;54.75
74494;SHT31;62978;51.094;-115.362;2022-09-09T03:42:45;9.81;55.20
74494;SHT31;62978;51.094;-115.362;2022-09-09T03:45:13;9.76;55.40
74494;SHT31;62978;51.094;-115.362;2022-09-09T03:47:40;9.71;55.54
74494;SHT31;62978;51.094;-115.362;2022-09-09T03:50:08;9.66;55.59
74494;SHT31;62978;51.094;-115.362;2022-09-09T03:52:37;9.62;55.80
74494;SHT31;62978;51.094;-115.362;2022-09-09T03:55:07;9.58;55.99
74494;SHT31;62978;51.094;-115.362;2022-09-09T03:57:35;9.54;56.22
74494;SHT31;62978;51.094;-115.362;2022-09-09T04:00:03;9.48;56.71
74494;SHT31;62978;51.094;-115.362;2022-09-09T04:02:32;9.41;57.17
74494;SHT31;62978;51.094;-115.362;2022-09-09T04:04:59;9.34;57.25
74494;SHT31;62978;51.094;-115.362;2022-09-09T04:07:27;9.25;57.41
74494;SHT31;62978;51.094;-115.362;2022-09-09T04:09:54;9.16;57.79
74494;SHT31;62978;51.094;-115.362;2022-09-09T04:12:22;9.08;58.24
74494;SHT31;62978;51.094;-115.362;2022-09-09T04:14:49;9.00;58.13
74494;SHT31;62978;51.094;-115.362;2022-09-09T04:17:16;8.92;58.57
74494;SHT31;62978;51.094;-115.362;2022-09-09T04:19:43;8.83;58.80
74494;SHT31;62978;51.094;-115.362;2022-09-09T04:22:11;8.74;58.88
74494;SHT31;62978;51.094;-115.362;2022-09-09T04:24:39;8.66;59.15
74494;SHT31;62978;51.094;-115.362;2022-09-09T04:27:06;8.58;59.38
74494;SHT31;62978;51.094;-115.362;2022-09-09T04:29:33;8.51;59.80
74494;SHT31;62978;51.094;-115.362;2022-09-09T04:32:00;8.49;59.91
74494;SHT31;62978;51.094;-115.362;2022-09-09T04:34:27;8.46;60.23
74494;SHT31;62978;51.094;-115.362;2022-09-09T04:36:55;8.44;60.45
74494;SHT31;62978;51.094;-115.362;2022-09-09T04:39:23;8.40;60.42
74494;SHT31;62978;51.094;-115.362;2022-09-09T04:41:50;8.36;60.53
74494;SHT31;62978;51.094;-115.362;2022-09-09T04:44:18;8.29;60.70
74494;SHT31;62978;51.094;-115.362;2022-09-09T04:46:45;8.25;60.96
74494;SHT31;62978;51.094;-115.362;2022-09-09T04:49:13;8.19;61.17
74494;SHT31;62978;51.094;-115.362;2022-09-09T04:51:40;8.14;61.49
74494;SHT31;62978;51.094;-115.362;2022-09-09T04:54:08;8.07;62.05
74494;SHT31;62978;51.094;-115.362;2022-09-09T04:56:37;7.99;61.91
74494;SHT31;62978;51.094;-115.362;2022-09-09T04:59:04;7.95;62.08
74494;SHT31;62978;51.094;-115.362;2022-09-09T05:01:31;7.93;62.27
74494;SHT31;62978;51.094;-115.362;2022-09-09T05:03:59;7.90;62.81
74494;SHT31;62978;51.094;-115.362;2022-09-09T05:06:27;7.82;63.39
74494;SHT31;62978;51.094;-115.362;2022-09-09T05:08:56;7.79;63.21
74494;SHT31;62978;51.094;-115.362;2022-09-09T05:11:25;7.80;63.34
74494;SHT31;62978;51.094;-115.362;2022-09-09T05:14:01;7.90;63.57
74494;SHT31;62978;51.094;-115.362;2022-09-09T05:16:29;7.99;63.20
74494;SHT31;62978;51.094;-115.362;2022-09-09T05:18:57;8.11;63.10
74494;SHT31;62978;51.094;-115.362;2022-09-09T05:21:24;8.22;63.06
74494;SHT31;62978;51.094;-115.362;2022-09-09T05:23:52;8.27;63.06
74494;SHT31;62978;51.094;-115.362;2022-09-09T05:26:20;8.34;62.96
74494;SHT31;62978;51.094;-115.362;2022-09-09T05:28:49;8.38;62.73
74494;SHT31;62978;51.094;-115.362;2022-09-09T05:31:17;8.45;62.43
74494;SHT31;62978;51.094;-115.362;2022-09-09T05:33:45;8.52;62.27
74494;SHT31;62978;51.094;-115.362;2022-09-09T05:36:17;8.58;62.50
74494;SHT31;62978;51.094;-115.362;2022-09-09T05:38:46;8.64;62.49
74494;SHT31;62978;51.094;-115.362;2022-09-09T05:41:15;8.67;62.90
74494;SHT31;62978;51.094;-115.362;2022-09-09T05:43:43;8.67;62.77
74494;SHT31;62978;51.094;-115.362;2022-09-09T05:46:15;8.67;62.41
74494;SHT31;62978;51.094;-115.362;2022-09-09T05:48:45;8.72;62.79
74494;SHT31;62978;51.094;-115.362;2022-09-09T05:51:17;8.81;63.31
74494;SHT31;62978;51.094;-115.362;2022-09-09T05:53:50;8.93;63.55
74494;SHT31;62978;51.094;-115.362;2022-09-09T05:56:18;9.07;64.15
74494;SHT31;62978;51.094;-115.362;2022-09-09T05:58:49;9.16;63.89
74494;SHT31;62978;51.094;-115.362;2022-09-09T06:01:28;9.24;63.32
74494;SHT31;62978;51.094;-115.362;2022-09-09T06:03:58;9.31;62.99
74494;SHT31;62978;51.094;-115.362;2022-09-09T06:06:27;9.36;62.59
74494;SHT31;62978;51.094;-115.362;2022-09-09T06:09:05;9.40;62.36
74494;SHT31;62978;51.094;-115.362;2022-09-09T06:11:39;9.42;62.48
74494;SHT31;62978;51.094;-115.362;2022-09-09T06:14:06;9.44;63.16
74494;SHT31;62978;51.094;-115.362;2022-09-09T06:16:34;9.43;65.06
74494;SHT31;62978;51.094;-115.362;2022-09-09T06:19:05;9.24;71.10
74494;SHT31;62978;51.094;-115.362;2022-09-09T06:21:33;8.89;74.83
74494;SHT31;62978;51.094;-115.362;2022-09-09T06:24:02;8.54;78.00
74494;SHT31;62978;51.094;-115.362;2022-09-09T06:26:35;8.30;79.43
74494;SHT31;62978;51.094;-115.362;2022-09-09T06:29:07;7.94;83.86
74494;SHT31;62978;51.094;-115.362;2022-09-09T06:31:37;7.65;85.83
74494;SHT31;62978;51.094;-115.362;2022-09-09T06:34:05;7.43;86.73
74494;SHT31;62978;51.094;-115.362;2022-09-09T06:36:34;7.28;87.60
74494;SHT31;62978;51.094;-115.362;2022-09-09T06:39:04;7.13;88.01
74494;SHT31;62978;51.094;-115.362;2022-09-09T06:41:32;7.04;88.46
74494;SHT31;62978;51.094;-115.362;2022-09-09T06:44:00;7.14;89.13
74494;SHT31;62978;51.094;-115.362;2022-09-09T06:46:29;7.28;89.60
74494;SHT31;62978;51.094;-115.362;2022-09-09T06:48:58;7.36;89.55
74494;SHT31;62978;51.094;-115.362;2022-09-09T06:51:27;7.42;89.08
74494;SHT31;62978;51.094;-115.362;2022-09-09T06:54:01;7.44;88.84
74494;SHT31;62978;51.094;-115.362;2022-09-09T06:56:33;7.51;88.97
74494;SHT31;62978;51.094;-115.362;2022-09-09T06:59:07;7.51;88.74
74494;SHT31;62978;51.094;-115.362;2022-09-09T07:01:37;7.44;88.65
74494;SHT31;62978;51.094;-115.362;2022-09-09T07:04:07;7.38;88.72
74494;SHT31;62978;51.094;-115.362;2022-09-09T07:06:37;7.27;88.67
74494;SHT31;62978;51.094;-115.362;2022-09-09T07:09:09;7.13;88.54
74494;SHT31;62978;51.094;-115.362;2022-09-09T07:11:40;6.98;88.38
74494;SHT31;62978;51.094;-115.362;2022-09-09T07:14:13;6.85;88.31
74494;SHT31;62978;51.094;-115.362;2022-09-09T07:16:41;6.72;88.19
74494;SHT31;62978;51.094;-115.362;2022-09-09T07:19:11;6.59;88.37
74494;SHT31;62978;51.094;-115.362;2022-09-09T07:21:39;6.48;88.47
74494;SHT31;62978;51.094;-115.362;2022-09-09T07:24:07;6.36;88.35
74494;SHT31;62978;51.094;-115.362;2022-09-09T07:26:36;6.29;88.55
74494;SHT31;62978;51.094;-115.362;2022-09-09T07:29:05;6.26;88.72
74494;SHT31;62978;51.094;-115.362;2022-09-09T07:31:34;6.21;88.80
74494;SHT31;62978;51.094;-115.362;2022-09-09T07:34:05;6.16;88.92
74494;SHT31;62978;51.094;-115.362;2022-09-09T07:36:34;6.10;88.99
74494;SHT31;62978;51.094;-115.362;2022-09-09T07:39:05;6.03;89.17
74494;SHT31;62978;51.094;-115.362;2022-09-09T07:41:37;6.00;89.33
74494;SHT31;62978;51.094;-115.362;2022-09-09T07:44:11;5.96;89.26
74494;SHT31;62978;51.094;-115.362;2022-09-09T07:46:41;5.90;89.11
74494;SHT31;62978;51.094;-115.362;2022-09-09T07:49:10;5.89;89.34
74494;SHT31;62978;51.094;-115.362;2022-09-09T07:51:39;5.88;89.56
74494;SHT31;62978;51.094;-115.362;2022-09-09T07:54:11;5.89;89.83
74494;SHT31;62978;51.094;-115.362;2022-09-09T07:56:41;5.91;89.98
74494;SHT31;62978;51.094;-115.362;2022-09-09T07:59:09;5.85;89.66
74494;SHT31;62978;51.094;-115.362;2022-09-09T08:01:41;5.81;89.70
74494;SHT31;62978;51.094;-115.362;2022-09-09T08:04:19;5.80;89.82
74494;SHT31;62978;51.094;-115.362;2022-09-09T08:06:52;5.82;90.15
74494;SHT31;62978;51.094;-115.362;2022-09-09T08:09:23;5.90;90.44
74494;SHT31;62978;51.094;-115.362;2022-09-09T08:11:54;5.94;90.46
74494;SHT31;62978;51.094;-115.362;2022-09-09T08:14:23;5.91;90.13
74494;SHT31;62978;51.094;-115.362;2022-09-09T08:16:51;5.86;89.94
74494;SHT31;62978;51.094;-115.362;2022-09-09T08:19:19;5.84;90.00
74494;SHT31;62978;51.094;-115.362;2022-09-09T08:21:47;5.88;90.30
74494;SHT31;62978;51.094;-115.362;2022-09-09T08:24:14;5.84;90.24
74494;SHT31;62978;51.094;-115.362;2022-09-09T08:26:43;5.82;90.31
74494;SHT31;62978;51.094;-115.362;2022-09-09T08:29:14;5.84;90.38
74494;SHT31;62978;51.094;-115.362;2022-09-09T08:31:43;5.86;90.44
74494;SHT31;62978;51.094;-115.362;2022-09-09T08:34:13;5.89;90.37
74494;SHT31;62978;51.094;-115.362;2022-09-09T08:36:41;5.84;90.23
74494;SHT31;62978;51.094;-115.362;2022-09-09T08:39:11;5.89;90.45
74494;SHT31;62978;51.094;-115.362;2022-09-09T08:44:37;5.96;90.66
74494;SHT31;62978;51.094;-115.362;2022-09-09T08:47:51;5.95;90.74
74494;SHT31;62978;51.094;-115.362;2022-09-09T08:50:44;5.91;90.63
74494;SHT31;62978;51.094;-115.362;2022-09-09T08:53:20;5.99;90.86
74494;SHT31;62978;51.094;-115.362;2022-09-09T08:56:02;6.07;90.99
74494;SHT31;62978;51.094;-115.362;2022-09-09T08:58:48;6.13;91.01
74494;SHT31;62978;51.094;-115.362;2022-09-09T09:01:23;6.19;91.10
74494;SHT31;62978;51.094;-115.362;2022-09-09T09:13:31;6.15;91.08
74494;SHT31;62978;51.094;-115.362;2022-09-09T09:16:19;6.17;91.06
74494;SHT31;62978;51.094;-115.362;2022-09-09T09:19:20;6.11;90.65
74494;SHT31;62978;51.094;-115.362;2022-09-09T09:21:54;6.04;90.45
74494;SHT31;62978;51.094;-115.362;2022-09-09T09:27:39;5.92;90.41
74494;SHT31;62978;51.094;-115.362;2022-09-09T09:30:19;5.91;90.54
74494;SHT31;62978;51.094;-115.362;2022-09-09T09:32:58;5.89;90.71
74494;SHT31;62978;51.094;-115.362;2022-09-09T09:35:40;5.88;90.76
74494;SHT31;62978;51.094;-115.362;2022-09-09T09:38:40;5.99;91.04
74494;SHT31;62978;51.094;-115.362;2022-09-09T09:41:02;6.05;91.00
74494;SHT31;62978;51.094;-115.362;2022-09-09T09:43:30;6.10;91.11
74494;SHT31;62978;51.094;-115.362;2022-09-09T09:46:20;6.14;91.18
74494;SHT31;62978;51.094;-115.362;2022-09-09T09:49:00;6.11;91.11
74494;SHT31;62978;51.094;-115.362;2022-09-09T09:51:31;6.10;91.13
74494;SHT31;62978;51.094;-115.362;2022-09-09T09:56:54;6.14;91.14
74494;SHT31;62978;51.094;-115.362;2022-09-09T10:05:08;6.18;91.21
74494;SHT31;62978;51.094;-115.362;2022-09-09T10:07:41;6.15;91.03
74494;SHT31;62978;51.094;-115.362;2022-09-09T10:10:15;6.10;91.04
74494;SHT31;62978;51.094;-115.362;2022-09-09T10:19:14;6.25;91.12
74494;SHT31;62978;51.094;-115.362;2022-09-09T10:31:00;6.12;90.91
74494;SHT31;62978;51.094;-115.362;2022-09-09T10:36:40;6.04;90.92
74494;SHT31;62978;51.094;-115.362;2022-09-09T10:39:18;6.06;90.94
74494;SHT31;62978;51.094;-115.362;2022-09-09T10:42:07;6.10;91.07
74494;SHT31;62978;51.094;-115.362;2022-09-09T10:48:04;5.98;90.69
74494;SHT31;62978;51.094;-115.362;2022-09-09T10:50:45;5.88;90.36
74494;SHT31;62978;51.094;-115.362;2022-09-09T10:56:13;5.76;90.18
74494;SHT31;62978;51.094;-115.362;2022-09-09T10:58:46;5.73;90.54
74494;SHT31;62978;51.094;-115.362;2022-09-09T11:04:39;5.79;90.64
74494;SHT31;62978;51.094;-115.362;2022-09-09T11:07:16;5.71;90.32
74494;SHT31;62978;51.094;-115.362;2022-09-09T11:10:36;5.63;90.40
74494;SHT31;62978;51.094;-115.362;2022-09-09T11:19:11;5.56;90.80
74494;SHT31;62978;51.094;-115.362;2022-09-09T11:21:43;5.62;90.89
74494;SHT31;62978;51.094;-115.362;2022-09-09T11:26:55;5.67;90.80
74494;SHT31;62978;51.094;-115.362;2022-09-09T11:29:51;5.74;90.81
74494;SHT31;62978;51.094;-115.362;2022-09-09T11:39:23;5.80;90.64
74494;SHT31;62978;51.094;-115.362;2022-09-09T11:42:07;5.79;90.55
74494;SHT31;62978;51.094;-115.362;2022-09-09T11:44:44;5.81;90.54
74494;SHT31;62978;51.094;-115.362;2022-09-09T11:47:26;5.83;90.53
74494;SHT31;62978;51.094;-115.362;2022-09-09T11:52:42;5.75;90.30
74494;SHT31;62978;51.094;-115.362;2022-09-09T11:55:26;5.68;90.30
74494;SHT31;62978;51.094;-115.362;2022-09-09T11:57:59;5.54;90.19
74494;SHT31;62978;51.094;-115.362;2022-09-09T12:00:36;5.53;90.35
74494;SHT31;62978;51.094;-115.362;2022-09-09T12:06:25;5.60;90.37
74494;SHT31;62978;51.094;-115.362;2022-09-09T12:09:22;5.64;90.27
74494;SHT31;62978;51.094;-115.362;2022-09-09T12:12:04;5.61;89.99
74494;SHT31;62978;51.094;-115.362;2022-09-09T12:14:42;5.55;89.93
74494;SHT31;62978;51.094;-115.362;2022-09-09T12:17:27;5.50;89.93
74494;SHT31;62978;51.094;-115.362;2022-09-09T12:20:00;5.47;89.96
74494;SHT31;62978;51.094;-115.362;2022-09-09T12:37:05;5.43;89.23
74494;SHT31;62978;51.094;-115.362;2022-09-09T12:39:49;5.39;89.32
74494;SHT31;62978;51.094;-115.362;2022-09-09T12:42:44;5.29;89.62
74494;SHT31;62978;51.094;-115.362;2022-09-09T12:45:15;5.26;89.52
74494;SHT31;62978;51.094;-115.362;2022-09-09T12:50:46;5.29;89.35
74494;SHT31;62978;51.094;-115.362;2022-09-09T12:55:53;5.32;89.25
74494;SHT31;62978;51.094;-115.362;2022-09-09T12:58:29;5.32;89.36
74494;SHT31;62978;51.094;-115.362;2022-09-09T13:01:00;5.34;89.31
74494;SHT31;62978;51.094;-115.362;2022-09-09T13:03:31;5.33;89.23
74494;SHT31;62978;51.094;-115.362;2022-09-09T13:06:12;5.31;89.20
74494;SHT31;62978;51.094;-115.362;2022-09-09T13:09:00;5.29;89.20
74494;SHT31;62978;51.094;-115.362;2022-09-09T13:11:39;5.28;89.08
74494;SHT31;62978;51.094;-115.362;2022-09-09T13:14:32;5.28;89.13
74494;SHT31;62978;51.094;-115.362;2022-09-09T13:17:05;5.31;89.12
74494;SHT31;62978;51.094;-115.362;2022-09-09T13:19:46;5.33;89.07
74494;SHT31;62978;51.094;-115.362;2022-09-09T13:22:34;5.31;88.94
74494;SHT31;62978;51.094;-115.362;2022-09-09T13:27:38;5.31;88.99
74494;SHT31;62978;51.094;-115.362;2022-09-09T13:30:21;5.28;88.97
74494;SHT31;62978;51.094;-115.362;2022-09-09T13:33:02;5.23;88.97
74494;SHT31;62978;51.094;-115.362;2022-09-09T13:35:35;5.21;88.88
74494;SHT31;62978;51.094;-115.362;2022-09-09T13:38:23;5.20;88.90
74494;SHT31;62978;51.094;-115.362;2022-09-09T13:40:54;5.16;88.89
74494;SHT31;62978;51.094;-115.362;2022-09-09T13:43:37;5.05;89.06
74494;SHT31;62978;51.094;-115.362;2022-09-09T13:51:47;4.81;89.29
74494;SHT31;62978;51.094;-115.362;2022-09-09T13:54:19;4.77;89.43
74494;SHT31;62978;51.094;-115.362;2022-09-09T13:56:48;4.82;89.62
74494;SHT31;62978;51.094;-115.362;2022-09-09T13:59:16;4.88;89.67
74494;SHT31;62978;51.094;-115.362;2022-09-09T14:01:46;4.95;89.65
74494;SHT31;62978;51.094;-115.362;2022-09-09T14:04:14;5.05;89.49
74494;SHT31;62978;51.094;-115.362;2022-09-09T14:06:42;5.11;89.33
74494;SHT31;62978;51.094;-115.362;2022-09-09T14:09:11;5.16;89.21
74494;SHT31;62978;51.094;-115.362;2022-09-09T14:11:42;5.20;89.15
74494;SHT31;62978;51.094;-115.362;2022-09-09T14:14:11;5.24;89.12
74494;SHT31;62978;51.094;-115.362;2022-09-09T14:16:38;5.30;89.02
74494;SHT31;62978;51.094;-115.362;2022-09-09T14:19:07;5.26;89.03
74494;SHT31;62978;51.094;-115.362;2022-09-09T14:21:35;5.16;89.03
74494;SHT31;62978;51.094;-115.362;2022-09-09T14:24:02;5.12;89.27
74494;SHT31;62978;51.094;-115.362;2022-09-09T14:26:30;5.11;89.25
74494;SHT31;62978;51.094;-115.362;2022-09-09T14:28:57;5.01;89.22
74494;SHT31;62978;51.094;-115.362;2022-09-09T14:31:26;4.90;88.99
74494;SHT31;62978;51.094;-115.362;2022-09-09T14:33:53;4.89;89.09
74494;SHT31;62978;51.094;-115.362;2022-09-09T14:36:21;4.90;89.05
74494;SHT31;62978;51.094;-115.362;2022-09-09T14:38:49;5.01;89.28
74494;SHT31;62978;51.094;-115.362;2022-09-09T14:41:17;5.18;89.21
74494;SHT31;62978;51.094;-115.362;2022-09-09T14:43:48;5.34;88.93
74494;SHT31;62978;51.094;-115.362;2022-09-09T14:46:16;5.48;88.80
74494;SHT31;62978;51.094;-115.362;2022-09-09T14:48:45;5.60;88.67
74494;SHT31;62978;51.094;-115.362;2022-09-09T14:51:17;5.67;88.39
74494;SHT31;62978;51.094;-115.362;2022-09-09T14:53:57;5.75;88.45
74494;SHT31;62978;51.094;-115.362;2022-09-09T14:56:28;5.81;88.64
74494;SHT31;62978;51.094;-115.362;2022-09-09T14:59:01;5.86;88.61
74494;SHT31;62978;51.094;-115.362;2022-09-09T15:01:29;5.87;88.46
74494;SHT31;62978;51.094;-115.362;2022-09-09T15:04:01;5.82;88.28
74494;SHT31;62978;51.094;-115.362;2022-09-09T15:06:32;5.88;88.51
74494;SHT31;62978;51.094;-115.362;2022-09-09T15:09:06;5.88;88.17
74494;SHT31;62978;51.094;-115.362;2022-09-09T15:11:35;5.94;88.12
74494;SHT31;62978;51.094;-115.362;2022-09-09T15:14:03;6.10;88.12
74494;SHT31;62978;51.094;-115.362;2022-09-09T15:16:32;6.26;88.03
74494;SHT31;62978;51.094;-115.362;2022-09-09T15:19:00;6.49;87.82
74494;SHT31;62978;51.094;-115.362;2022-09-09T15:21:30;6.71;87.49
74494;SHT31;62978;51.094;-115.362;2022-09-09T15:24:00;6.99;87.44
74494;SHT31;62978;51.094;-115.362;2022-09-09T15:26:27;7.24;87.05
74494;SHT31;62978;51.094;-115.362;2022-09-09T15:28:55;7.41;86.69
74494;SHT31;62978;51.094;-115.362;2022-09-09T15:31:25;7.49;85.37
74494;SHT31;62978;51.094;-115.362;2022-09-09T15:33:59;7.30;85.25
74494;SHT31;62978;51.094;-115.362;2022-09-09T15:36:31;7.22;85.49
74494;SHT31;62978;51.094;-115.362;2022-09-09T15:39:00;7.33;85.43
74494;SHT31;62978;51.094;-115.362;2022-09-09T15:41:29;7.34;85.19
74494;SHT31;62978;51.094;-115.362;2022-09-09T15:43:59;7.35;85.32
74494;SHT31;62978;51.094;-115.362;2022-09-09T15:46:37;7.39;85.18
74494;SHT31;62978;51.094;-115.362;2022-09-09T15:49:23;7.32;85.13
74494;SHT31;62978;51.094;-115.362;2022-09-09T15:51:52;7.26;85.44
74494;SHT31;62978;51.094;-115.362;2022-09-09T15:54:23;7.28;85.12
74494;SHT31;62978;51.094;-115.362;2022-09-09T15:56:56;7.28;84.82
74494;SHT31;62978;51.094;-115.362;2022-09-09T15:59:27;7.27;84.83
74494;SHT31;62978;51.094;-115.362;2022-09-09T16:01:56;7.31;84.99
74494;SHT31;62978;51.094;-115.362;2022-09-09T16:04:25;7.40;84.99
74494;SHT31;62978;51.094;-115.362;2022-09-09T16:06:58;7.56;85.14
74494;SHT31;62978;51.094;-115.362;2022-09-09T16:09:28;7.69;85.10
74494;SHT31;62978;51.094;-115.362;2022-09-09T16:11:57;7.74;84.74
74494;SHT31;62978;51.094;-115.362;2022-09-09T16:14:26;7.71;84.23
74494;SHT31;62978;51.094;-115.362;2022-09-09T16:16:54;7.66;84.68
74494;SHT31;62978;51.094;-115.362;2022-09-09T16:19:21;7.71;84.24
74494;SHT31;62978;51.094;-115.362;2022-09-09T16:21:49;7.78;84.38
74494;SHT31;62978;51.094;-115.362;2022-09-09T16:24:17;7.81;84.25
74494;SHT31;62978;51.094;-115.362;2022-09-09T16:26:47;7.88;84.33
74494;SHT31;62978;51.094;-115.362;2022-09-09T16:29:18;7.92;84.21
74494;SHT31;62978;51.094;-115.362;2022-09-09T16:31:47;8.02;83.88
74494;SHT31;62978;51.094;-115.362;2022-09-09T16:34:16;8.12;84.22
74494;SHT31;62978;51.094;-115.362;2022-09-09T16:36:44;8.25;83.51
74494;SHT31;62978;51.094;-115.362;2022-09-09T16:39:14;8.38;83.25
74494;SHT31;62978;51.094;-115.362;2022-09-09T16:41:44;8.50;83.26
74494;SHT31;62978;51.094;-115.362;2022-09-09T16:44:14;8.61;82.68
74494;SHT31;62978;51.094;-115.362;2022-09-09T16:46:45;8.71;83.14
74494;SHT31;62978;51.094;-115.362;2022-09-09T16:49:20;8.84;83.55
74494;SHT31;62978;51.094;-115.362;2022-09-09T16:51:50;8.93;82.38
74494;SHT31;62978;51.094;-115.362;2022-09-09T16:54:19;8.99;82.87
74494;SHT31;62978;51.094;-115.362;2022-09-09T16:56:48;9.09;82.63
74494;SHT31;62978;51.094;-115.362;2022-09-09T16:59:18;9.05;79.01
74494;SHT31;62978;51.094;-115.362;2022-09-09T17:01:48;8.91;78.01
74494;SHT31;62978;51.094;-115.362;2022-09-09T17:04:21;8.78;77.57
74494;SHT31;62978;51.094;-115.362;2022-09-09T17:06:54;8.80;78.58
74494;SHT31;62978;51.094;-115.362;2022-09-09T17:09:22;8.89;79.31
74494;SHT31;62978;51.094;-115.362;2022-09-09T17:11:54;9.01;79.52
74494;SHT31;62978;51.094;-115.362;2022-09-09T17:14:22;9.11;78.14
74494;SHT31;62978;51.094;-115.362;2022-09-09T17:16:49;9.19;77.75
74494;SHT31;62978;51.094;-115.362;2022-09-09T17:19:16;9.29;77.15
74494;SHT31;62978;51.094;-115.362;2022-09-09T17:21:44;9.43;76.27
74494;SHT31;62978;51.094;-115.362;2022-09-09T17:24:12;9.49;75.88
74494;SHT31;62978;51.094;-115.362;2022-09-09T17:26:41;9.62;77.09
74494;SHT31;62978;51.094;-115.362;2022-09-09T17:29:08;9.76;77.21
74494;SHT31;62978;51.094;-115.362;2022-09-09T17:31:36;9.92;77.12
74494;SHT31;62978;51.094;-115.362;2022-09-09T17:34:04;10.09;76.84
74494;SHT31;62978;51.094;-115.362;2022-09-09T17:36:33;10.27;75.15
74494;SHT31;62978;51.094;-115.362;2022-09-09T17:39:02;10.38;74.28
74494;SHT31;62978;51.094;-115.362;2022-09-09T17:41:35;10.50;73.48
74494;SHT31;62978;51.094;-115.362;2022-09-09T17:44:05;10.57;73.85
74494;SHT31;62978;51.094;-115.362;2022-09-09T17:46:35;10.67;73.19
74494;SHT31;62978;51.094;-115.362;2022-09-09T17:49:09;10.76;72.66
74494;SHT31;62978;51.094;-115.362;2022-09-09T17:51:41;10.85;70.90
74494;SHT31;62978;51.094;-115.362;2022-09-09T17:54:14;10.95;70.19
74494;SHT31;62978;51.094;-115.362;2022-09-09T17:56:46;11.04;68.48
74494;SHT31;62978;51.094;-115.362;2022-09-09T17:59:14;11.04;67.34
74494;SHT31;62978;51.094;-115.362;2022-09-09T18:01:46;11.14;66.65
74494;SHT31;62978;51.094;-115.362;2022-09-09T18:04:15;11.30;67.53
74494;SHT31;62978;51.094;-115.362;2022-09-09T18:06:45;11.42;66.41
74494;SHT31;62978;51.094;-115.362;2022-09-09T18:09:16;11.57;63.46
74494;SHT31;62978;51.094;-115.362;2022-09-09T18:11:52;11.71;63.67